Maldives Meteorological Service

SYNOP

Station Code SYNOP
43555
AAXX 24034 43555 42470 29902 10292 20243 30130 40132 81102 333 20276 58009 81818 555 11328=
43533
AAXX 24034 43533 41459 43605 10288 20245 30129 40131 70521 82202 333 20240 58007 82818 83077 555 11801=
43577
AAXX 24034 43577 42465 32503 10300 20258 30130 40132 82242 333 20255 58004 82818 555 11110=
43588
AAXX 24034 43588 42468 32504 10292 20249 30128 40129 83101 333 20261 58003 82818 555 11460=
43599
AAXX 24034 43599 42565 12704 10282 20243 30130 40132 81100 333 20238 58003 81870 555 11611=
Last Updated : 2017-10-24 08:02:02